aviador You're here:

LWSK Decoded Metar

SKOPJE in FORMER MACEDONIA
Report Time2018-02-22 08:30:00
UTC Time2018-02-22 08:38:40
Flight Rules vfr VFR
Wind040° at 05 kt
W.Decomp.*RWY 34: 2.6 kt HW 4.2 kt RCW
W.Rank040° ranks 4
Current wind is above 040° avg. (4.7)
Visibility9999 m
Phenomena:N/A
Clouds:Scattered 016 Hf
Overcast 033 Hf
Expected CloudBase > 400 ft AGL from Temp-Dew spread
Ceiling3,300 ft
Temp06°C (ISA -7)
Dew Point05°C (93% RH)
AAT3.1°C
QNH1010 hPa
Density Alt112 ft
Elevation784 ft
Report Wrong Elevation
Raw Report
METAR LWSK 220830Z 04005KT 9999 SCT016 OVC033 06/05 Q1010 NOSIG=

Extra information for LWSK:More info

Metar Taf Metar & Taf Last 4 Metars F.Rules Stats Wind Profile Meteogram Temp Stats Airport Information Weather charts Add Link Nearby VenuesMetar ALERT Operation Metar Decoded Social comments

Airport Page